sensor_id;sensor_type;location;lat;lon;timestamp;pressure;altitude;pressure_sealevel;temperature;humidity
41654;BME280;68687;52.030;7.110;2023-05-12T00:00:59;100806.34;;;12.28;100.00
41654;BME280;68687;52.030;7.110;2023-05-12T00:03:25;100798.91;;;12.30;100.00
41654;BME280;68687;52.030;7.110;2023-05-12T00:05:50;100794.28;;;12.24;100.00
41654;BME280;68687;52.030;7.110;2023-05-12T00:08:16;100801.78;;;12.28;100.00
41654;BME280;68687;52.030;7.110;2023-05-12T00:10:41;100791.88;;;12.29;100.00
41654;BME280;68687;52.030;7.110;2023-05-12T00:13:07;100800.97;;;12.28;100.00
41654;BME280;68687;52.030;7.110;2023-05-12T00:15:33;100783.16;;;12.27;100.00
41654;BME280;68687;52.030;7.110;2023-05-12T00:17:58;100791.88;;;12.29;100.00
41654;BME280;68687;52.030;7.110;2023-05-12T00:20:24;100791.41;;;12.25;100.00
41654;BME280;68687;52.030;7.110;2023-05-12T00:22:52;100790.84;;;12.30;100.00
41654;BME280;68687;52.030;7.110;2023-05-12T00:25:23;100791.03;;;12.28;100.00
41654;BME280;68687;52.030;7.110;2023-05-12T00:27:48;100795.31;;;12.23;100.00
41654;BME280;68687;52.030;7.110;2023-05-12T00:30:13;100792.25;;;12.26;100.00
41654;BME280;68687;52.030;7.110;2023-05-12T00:32:39;100788.72;;;12.25;100.00
41654;BME280;68687;52.030;7.110;2023-05-12T00:35:04;100793.28;;;12.25;100.00
41654;BME280;68687;52.030;7.110;2023-05-12T00:37:32;100792.63;;;12.23;100.00
41654;BME280;68687;52.030;7.110;2023-05-12T00:39:58;100791.59;;;12.24;100.00
41654;BME280;68687;52.030;7.110;2023-05-12T00:42:23;100790.59;;;12.25;100.00
41654;BME280;68687;52.030;7.110;2023-05-12T00:44:51;100789.16;;;12.29;100.00
41654;BME280;68687;52.030;7.110;2023-05-12T00:47:16;100790.66;;;12.31;100.00
41654;BME280;68687;52.030;7.110;2023-05-12T00:49:44;100794.56;;;12.29;100.00
41654;BME280;68687;52.030;7.110;2023-05-12T00:52:09;100798.28;;;12.28;100.00
41654;BME280;68687;52.030;7.110;2023-05-12T00:54:35;100799.28;;;12.27;100.00
41654;BME280;68687;52.030;7.110;2023-05-12T00:57:01;100794.56;;;12.29;100.00
41654;BME280;68687;52.030;7.110;2023-05-12T00:59:30;100803.75;;;12.34;100.00
41654;BME280;68687;52.030;7.110;2023-05-12T01:01:55;100795.38;;;12.29;100.00
41654;BME280;68687;52.030;7.110;2023-05-12T01:04:21;100792.41;;;12.39;100.00
41654;BME280;68687;52.030;7.110;2023-05-12T01:06:59;100788.38;;;12.50;100.00
41654;BME280;68687;52.030;7.110;2023-05-12T01:09:27;100790.41;;;12.48;100.00
41654;BME280;68687;52.030;7.110;2023-05-12T01:11:59;100789.84;;;12.52;100.00
41654;BME280;68687;52.030;7.110;2023-05-12T01:14:30;100794.56;;;12.50;100.00
41654;BME280;68687;52.030;7.110;2023-05-12T01:16:58;100793.94;;;12.48;100.00
41654;BME280;68687;52.030;7.110;2023-05-12T01:22:09;100778.44;;;12.50;100.00
41654;BME280;68687;52.030;7.110;2023-05-12T01:24:44;100788.81;;;12.53;100.00
41654;BME280;68687;52.030;7.110;2023-05-12T01:27:11;100782.59;;;12.53;100.00
41654;BME280;68687;52.030;7.110;2023-05-12T01:29:37;100799.56;;;12.53;100.00
41654;BME280;68687;52.030;7.110;2023-05-12T01:32:03;100793.81;;;12.56;100.00
41654;BME280;68687;52.030;7.110;2023-05-12T01:34:30;100799.72;;;12.66;100.00
41654;BME280;68687;52.030;7.110;2023-05-12T01:36:56;100799.19;;;12.56;100.00
41654;BME280;68687;52.030;7.110;2023-05-12T01:39:24;100793.41;;;12.59;100.00
41654;BME280;68687;52.030;7.110;2023-05-12T01:41:49;100789.59;;;12.68;100.00
41654;BME280;68687;52.030;7.110;2023-05-12T01:44:15;100797.28;;;12.72;100.00
41654;BME280;68687;52.030;7.110;2023-05-12T01:46:40;100800.59;;;12.74;100.00
41654;BME280;68687;52.030;7.110;2023-05-12T01:49:05;100795.22;;;12.74;100.00
41654;BME280;68687;52.030;7.110;2023-05-12T01:51:30;100790.88;;;12.73;100.00
41654;BME280;68687;52.030;7.110;2023-05-12T01:53:56;100797.91;;;12.74;100.00
41654;BME280;68687;52.030;7.110;2023-05-12T01:56:21;100794.81;;;12.77;100.00
41654;BME280;68687;52.030;7.110;2023-05-12T01:58:46;100791.94;;;12.78;100.00
41654;BME280;68687;52.030;7.110;2023-05-12T02:01:15;100792.78;;;12.79;100.00
41654;BME280;68687;52.030;7.110;2023-05-12T02:03:40;100796.88;;;12.75;100.00
41654;BME280;68687;52.030;7.110;2023-05-12T02:06:05;100788.56;;;12.69;100.00
41654;BME280;68687;52.030;7.110;2023-05-12T02:08:31;100803.78;;;12.84;100.00
41654;BME280;68687;52.030;7.110;2023-05-12T02:11:06;100799.44;;;12.83;100.00
41654;BME280;68687;52.030;7.110;2023-05-12T02:13:32;100798.59;;;12.82;100.00
41654;BME280;68687;52.030;7.110;2023-05-12T02:16:04;100785.13;;;12.82;100.00
41654;BME280;68687;52.030;7.110;2023-05-12T02:18:30;100788.16;;;12.73;100.00
41654;BME280;68687;52.030;7.110;2023-05-12T02:20:55;100781.94;;;12.72;100.00
41654;BME280;68687;52.030;7.110;2023-05-12T02:23:23;100795.16;;;12.67;100.00
41654;BME280;68687;52.030;7.110;2023-05-12T02:25:49;100790.63;;;12.67;100.00
41654;BME280;68687;52.030;7.110;2023-05-12T02:28:14;100799.81;;;12.80;100.00
41654;BME280;68687;52.030;7.110;2023-05-12T02:30:47;100805.81;;;12.75;100.00
41654;BME280;68687;52.030;7.110;2023-05-12T02:33:18;100798.59;;;12.82;100.00
41654;BME280;68687;52.030;7.110;2023-05-12T02:35:44;100790.47;;;12.76;100.00
41654;BME280;68687;52.030;7.110;2023-05-12T02:38:10;100796.88;;;12.75;100.00
41654;BME280;68687;52.030;7.110;2023-05-12T02:40:35;100803.44;;;12.65;100.00
41654;BME280;68687;52.030;7.110;2023-05-12T02:43:00;100801.25;;;12.76;100.00
41654;BME280;68687;52.030;7.110;2023-05-12T02:45:26;100799.53;;;12.68;100.00
41654;BME280;68687;52.030;7.110;2023-05-12T02:47:51;100793.13;;;12.69;100.00
41654;BME280;68687;52.030;7.110;2023-05-12T02:50:16;100805.34;;;12.72;100.00
41654;BME280;68687;52.030;7.110;2023-05-12T02:52:42;100800.09;;;12.63;100.00
41654;BME280;68687;52.030;7.110;2023-05-12T02:55:07;100801.78;;;12.64;100.00
41654;BME280;68687;52.030;7.110;2023-05-12T02:57:33;100798.25;;;12.64;100.00
41654;BME280;68687;52.030;7.110;2023-05-12T03:00:07;100795.16;;;12.67;100.00
41654;BME280;68687;52.030;7.110;2023-05-12T03:02:34;100791.41;;;12.61;100.00
41654;BME280;68687;52.030;7.110;2023-05-12T03:05:03;100804.84;;;12.61;100.00
41654;BME280;68687;52.030;7.110;2023-05-12T03:07:29;100807.34;;;12.63;100.00
41654;BME280;68687;52.030;7.110;2023-05-12T03:09:55;100809.22;;;12.62;100.00
41654;BME280;68687;52.030;7.110;2023-05-12T03:12:24;100803.75;;;12.56;100.00
41654;BME280;68687;52.030;7.110;2023-05-12T03:14:49;100805.34;;;12.50;100.00
41654;BME280;68687;52.030;7.110;2023-05-12T03:17:15;100802.66;;;12.50;100.00
41654;BME280;68687;52.030;7.110;2023-05-12T03:19:41;100803.94;;;12.54;100.00
41654;BME280;68687;52.030;7.110;2023-05-12T03:22:06;100810.88;;;12.42;100.00
41654;BME280;68687;52.030;7.110;2023-05-12T03:24:34;100808.19;;;12.42;100.00
41654;BME280;68687;52.030;7.110;2023-05-12T03:27:00;100813.56;;;12.42;100.00
41654;BME280;68687;52.030;7.110;2023-05-12T03:29:29;100809.06;;;12.49;100.00
41654;BME280;68687;52.030;7.110;2023-05-12T03:31:54;100812.53;;;12.43;100.00
41654;BME280;68687;52.030;7.110;2023-05-12T03:34:19;100804.06;;;12.46;100.00
41654;BME280;68687;52.030;7.110;2023-05-12T03:36:45;100811.69;;;12.43;100.00
41654;BME280;68687;52.030;7.110;2023-05-12T03:39:13;100816.88;;;12.44;100.00
41654;BME280;68687;52.030;7.110;2023-05-12T03:41:38;100807.34;;;12.42;100.00
41654;BME280;68687;52.030;7.110;2023-05-12T03:44:04;100816.06;;;12.44;100.00
41654;BME280;68687;52.030;7.110;2023-05-12T03:46:35;100822.28;;;12.44;100.00
41654;BME280;68687;52.030;7.110;2023-05-12T03:49:00;100812.34;;;12.45;100.00
41654;BME280;68687;52.030;7.110;2023-05-12T03:51:25;100809.00;;;12.43;100.00
41654;BME280;68687;52.030;7.110;2023-05-12T03:53:52;100826.19;;;12.42;100.00
41654;BME280;68687;52.030;7.110;2023-05-12T03:56:17;100814.97;;;12.38;100.00
41654;BME280;68687;52.030;7.110;2023-05-12T03:58:43;100821.00;;;12.40;100.00
41654;BME280;68687;52.030;7.110;2023-05-12T04:01:10;100823.44;;;12.35;100.00
41654;BME280;68687;52.030;7.110;2023-05-12T04:03:35;100823.03;;;12.38;100.00
41654;BME280;68687;52.030;7.110;2023-05-12T04:06:02;100822.22;;;12.37;100.00
41654;BME280;68687;52.030;7.110;2023-05-12T04:08:28;100826.38;;;12.40;100.00
41654;BME280;68687;52.030;7.110;2023-05-12T04:10:54;100824.31;;;12.42;100.00
41654;BME280;68687;52.030;7.110;2023-05-12T04:13:20;100831.81;;;12.47;100.00
41654;BME280;68687;52.030;7.110;2023-05-12T04:15:46;100831.31;;;12.36;100.00
41654;BME280;68687;52.030;7.110;2023-05-12T04:18:11;100825.53;;;12.40;100.00
41654;BME280;68687;52.030;7.110;2023-05-12T04:20:36;100848.94;;;12.39;100.00
41654;BME280;68687;52.030;7.110;2023-05-12T04:23:02;100834.19;;;12.35;100.00
41654;BME280;68687;52.030;7.110;2023-05-12T04:25:27;100851.63;;;12.39;100.00
41654;BME280;68687;52.030;7.110;2023-05-12T04:27:52;100846.25;;;12.39;100.00
41654;BME280;68687;52.030;7.110;2023-05-12T04:30:17;100857.91;;;12.46;100.00
41654;BME280;68687;52.030;7.110;2023-05-12T04:32:43;100853.09;;;12.42;100.00
41654;BME280;68687;52.030;7.110;2023-05-12T04:35:08;100856.91;;;12.47;100.00
41654;BME280;68687;52.030;7.110;2023-05-12T04:37:33;100862.66;;;12.44;100.00
41654;BME280;68687;52.030;7.110;2023-05-12T04:39:59;100862.91;;;12.49;100.00
41654;BME280;68687;52.030;7.110;2023-05-12T04:42:27;100871.25;;;12.54;100.00
41654;BME280;68687;52.030;7.110;2023-05-12T04:44:52;100865.03;;;12.54;100.00
41654;BME280;68687;52.030;7.110;2023-05-12T04:47:18;100874.53;;;12.50;100.00
41654;BME280;68687;52.030;7.110;2023-05-12T04:49:43;100869.06;;;12.43;100.00
41654;BME280;68687;52.030;7.110;2023-05-12T04:52:11;100879.34;;;12.54;100.00
41654;BME280;68687;52.030;7.110;2023-05-12T04:54:36;100879.25;;;12.48;100.00
41654;BME280;68687;52.030;7.110;2023-05-12T04:57:03;100882.97;;;12.61;99.80
41654;BME280;68687;52.030;7.110;2023-05-12T04:59:28;100885.88;;;12.45;100.00
41654;BME280;68687;52.030;7.110;2023-05-12T05:01:55;100893.44;;;12.56;99.80
41654;BME280;68687;52.030;7.110;2023-05-12T05:04:20;100896.44;;;12.61;99.78
41654;BME280;68687;52.030;7.110;2023-05-12T05:06:46;100892.91;;;12.61;99.66
41654;BME280;68687;52.030;7.110;2023-05-12T05:09:11;100900.41;;;12.65;98.82
41654;BME280;68687;52.030;7.110;2023-05-12T05:11:39;100907.91;;;12.70;99.38
41654;BME280;68687;52.030;7.110;2023-05-12T05:14:04;100908.53;;;12.72;99.30
41654;BME280;68687;52.030;7.110;2023-05-12T05:16:33;100916.25;;;12.75;98.28
41654;BME280;68687;52.030;7.110;2023-05-12T05:18:58;100919.50;;;12.71;98.82
41654;BME280;68687;52.030;7.110;2023-05-12T05:21:23;100919.81;;;12.61;98.55
41654;BME280;68687;52.030;7.110;2023-05-12T05:23:49;100921.94;;;12.65;98.00
41654;BME280;68687;52.030;7.110;2023-05-12T05:26:14;100936.50;;;12.71;97.43
41654;BME280;68687;52.030;7.110;2023-05-12T05:28:39;100929.19;;;12.65;97.13
41654;BME280;68687;52.030;7.110;2023-05-12T05:31:05;100937.09;;;12.66;97.27
41654;BME280;68687;52.030;7.110;2023-05-12T05:33:33;100940.16;;;12.85;97.51
41654;BME280;68687;52.030;7.110;2023-05-12T05:35:58;100934.06;;;12.76;96.73
41654;BME280;68687;52.030;7.110;2023-05-12T05:38:26;100942.34;;;12.75;96.38
41654;BME280;68687;52.030;7.110;2023-05-12T05:40:52;100942.16;;;12.76;96.66
41654;BME280;68687;52.030;7.110;2023-05-12T05:43:23;100946.59;;;12.84;97.01
41654;BME280;68687;52.030;7.110;2023-05-12T05:45:49;100954.66;;;12.84;96.40
41654;BME280;68687;52.030;7.110;2023-05-12T05:48:15;100955.59;;;12.91;95.75
41654;BME280;68687;52.030;7.110;2023-05-12T05:50:40;100952.25;;;12.89;95.71
41654;BME280;68687;52.030;7.110;2023-05-12T05:53:06;100964.19;;;13.01;96.08
41654;BME280;68687;52.030;7.110;2023-05-12T05:55:34;100961.19;;;12.89;95.52
41654;BME280;68687;52.030;7.110;2023-05-12T05:57:59;100962.00;;;12.90;95.04
41654;BME280;68687;52.030;7.110;2023-05-12T06:00:24;100965.81;;;13.17;94.18
41654;BME280;68687;52.030;7.110;2023-05-12T06:02:50;100963.22;;;13.09;94.72
41654;BME280;68687;52.030;7.110;2023-05-12T06:05:18;100969.63;;;13.22;93.35
41654;BME280;68687;52.030;7.110;2023-05-12T06:07:43;100966.75;;;13.09;93.38
41654;BME280;68687;52.030;7.110;2023-05-12T06:10:08;100978.63;;;13.29;94.11
41654;BME280;68687;52.030;7.110;2023-05-12T06:12:34;100979.84;;;13.27;92.17
41654;BME280;68687;52.030;7.110;2023-05-12T06:14:59;100983.50;;;13.19;92.28
41654;BME280;68687;52.030;7.110;2023-05-12T06:17:24;100983.84;;;13.16;92.23
41654;BME280;68687;52.030;7.110;2023-05-12T06:19:50;100985.56;;;13.17;91.76
41654;BME280;68687;52.030;7.110;2023-05-12T06:22:18;100987.34;;;13.32;92.11
41654;BME280;68687;52.030;7.110;2023-05-12T06:24:43;100994.91;;;13.21;92.05
41654;BME280;68687;52.030;7.110;2023-05-12T06:27:14;100996.97;;;13.41;91.35
41654;BME280;68687;52.030;7.110;2023-05-12T06:29:41;101001.16;;;13.43;91.03
41654;BME280;68687;52.030;7.110;2023-05-12T06:32:06;101006.06;;;13.40;91.01
41654;BME280;68687;52.030;7.110;2023-05-12T06:34:32;100999.53;;;13.27;91.12
41654;BME280;68687;52.030;7.110;2023-05-12T06:36:57;101001.28;;;13.35;91.08
41654;BME280;68687;52.030;7.110;2023-05-12T06:39:22;101003.66;;;13.45;90.38
41654;BME280;68687;52.030;7.110;2023-05-12T06:41:48;101005.63;;;13.57;90.90
41654;BME280;68687;52.030;7.110;2023-05-12T06:44:13;101001.56;;;13.68;90.24
41654;BME280;68687;52.030;7.110;2023-05-12T06:46:38;101004.78;;;13.78;89.17
41654;BME280;68687;52.030;7.110;2023-05-12T06:49:05;101020.19;;;13.84;88.75
41654;BME280;68687;52.030;7.110;2023-05-12T06:51:30;101014.63;;;13.92;87.29
41654;BME280;68687;52.030;7.110;2023-05-12T06:53:56;101018.47;;;14.05;87.77
41654;BME280;68687;52.030;7.110;2023-05-12T06:56:21;101017.13;;;14.22;86.36
41654;BME280;68687;52.030;7.110;2023-05-12T06:58:47;101018.97;;;14.49;87.94
41654;BME280;68687;52.030;7.110;2023-05-12T07:01:13;101011.00;;;14.76;86.50
41654;BME280;68687;52.030;7.110;2023-05-12T07:03:38;101012.03;;;14.75;83.61
41654;BME280;68687;52.030;7.110;2023-05-12T07:06:04;101014.22;;;14.99;82.52
41654;BME280;68687;52.030;7.110;2023-05-12T07:08:29;101018.38;;;14.95;82.73
41654;BME280;68687;52.030;7.110;2023-05-12T07:10:54;101012.78;;;15.03;81.84
41654;BME280;68687;52.030;7.110;2023-05-12T07:13:22;101030.19;;;14.81;80.59
41654;BME280;68687;52.030;7.110;2023-05-12T07:15:48;101027.09;;;14.97;82.38
41654;BME280;68687;52.030;7.110;2023-05-12T07:18:13;101025.50;;;15.09;80.70
41654;BME280;68687;52.030;7.110;2023-05-12T07:20:44;101031.13;;;15.21;80.43
41654;BME280;68687;52.030;7.110;2023-05-12T07:23:13;101025.50;;;15.09;80.52
41654;BME280;68687;52.030;7.110;2023-05-12T07:25:39;101026.34;;;15.23;81.37
41654;BME280;68687;52.030;7.110;2023-05-12T07:28:04;101041.28;;;15.06;78.80
41654;BME280;68687;52.030;7.110;2023-05-12T07:30:30;101039.66;;;15.25;78.77
41654;BME280;68687;52.030;7.110;2023-05-12T07:32:55;101046.75;;;15.26;78.08
41654;BME280;68687;52.030;7.110;2023-05-12T07:35:21;101036.34;;;15.23;78.44
41654;BME280;68687;52.030;7.110;2023-05-12T07:37:50;101037.97;;;15.10;80.76
41654;BME280;68687;52.030;7.110;2023-05-12T07:40:15;101044.94;;;15.46;78.66
41654;BME280;68687;52.030;7.110;2023-05-12T07:42:41;101047.44;;;15.54;78.71
41654;BME280;68687;52.030;7.110;2023-05-12T07:45:06;101049.72;;;15.57;78.80
41654;BME280;68687;52.030;7.110;2023-05-12T07:47:32;101045.22;;;15.64;78.10
41654;BME280;68687;52.030;7.110;2023-05-12T07:50:03;101051.41;;;15.58;76.09
41654;BME280;68687;52.030;7.110;2023-05-12T07:52:29;101049.59;;;16.05;77.77
41654;BME280;68687;52.030;7.110;2023-05-12T07:54:57;101044.78;;;16.20;76.04
41654;BME280;68687;52.030;7.110;2023-05-12T07:57:22;101054.75;;;16.39;74.36
41654;BME280;68687;52.030;7.110;2023-05-12T07:59:50;101049.53;;;16.45;74.49
41654;BME280;68687;52.030;7.110;2023-05-12T08:02:15;101050.16;;;16.47;74.01
41654;BME280;68687;52.030;7.110;2023-05-12T08:04:44;101048.41;;;16.85;74.28
41654;BME280;68687;52.030;7.110;2023-05-12T08:07:09;101050.38;;;17.10;70.68
41654;BME280;68687;52.030;7.110;2023-05-12T08:09:35;101045.31;;;17.20;69.61
41654;BME280;68687;52.030;7.110;2023-05-12T08:12:00;101055.50;;;17.24;70.13
41654;BME280;68687;52.030;7.110;2023-05-12T08:14:25;101063.03;;;17.22;69.67
41654;BME280;68687;52.030;7.110;2023-05-12T08:16:51;101056.84;;;17.09;68.97
41654;BME280;68687;52.030;7.110;2023-05-12T08:19:16;101055.31;;;17.26;70.80
41654;BME280;68687;52.030;7.110;2023-05-12T08:21:41;101057.53;;;17.74;68.89
41654;BME280;68687;52.030;7.110;2023-05-12T08:24:07;101051.56;;;17.58;68.24
41654;BME280;68687;52.030;7.110;2023-05-12T08:26:32;101062.31;;;17.40;67.79
41654;BME280;68687;52.030;7.110;2023-05-12T08:28:57;101057.72;;;17.41;68.14
41654;BME280;68687;52.030;7.110;2023-05-12T08:31:23;101060.31;;;17.22;67.05
41654;BME280;68687;52.030;7.110;2023-05-12T08:33:48;101064.59;;;17.43;68.15
41654;BME280;68687;52.030;7.110;2023-05-12T08:36:13;101067.34;;;17.75;66.26
41654;BME280;68687;52.030;7.110;2023-05-12T08:38:44;101064.16;;;17.84;66.43
41654;BME280;68687;52.030;7.110;2023-05-12T08:41:24;101073.13;;;17.85;68.42
41654;BME280;68687;52.030;7.110;2023-05-12T08:43:53;101069.69;;;17.65;65.78
41654;BME280;68687;52.030;7.110;2023-05-12T08:46:19;101071.00;;;17.55;66.24
41654;BME280;68687;52.030;7.110;2023-05-12T08:48:46;101073.81;;;17.74;66.45
41654;BME280;68687;52.030;7.110;2023-05-12T08:51:14;101072.53;;;17.83;64.94
41654;BME280;68687;52.030;7.110;2023-05-12T08:53:40;101073.34;;;17.83;65.08
41654;BME280;68687;52.030;7.110;2023-05-12T08:56:07;101088.16;;;18.12;64.97
41654;BME280;68687;52.030;7.110;2023-05-12T08:58:40;101092.63;;;18.00;64.69
41654;BME280;68687;52.030;7.110;2023-05-12T09:01:06;101081.00;;;17.93;63.55
41654;BME280;68687;52.030;7.110;2023-05-12T09:03:35;101074.66;;;17.74;65.80
41654;BME280;68687;52.030;7.110;2023-05-12T09:06:01;101094.63;;;17.86;65.52
41654;BME280;68687;52.030;7.110;2023-05-12T09:08:30;101082.38;;;18.02;64.21
41654;BME280;68687;52.030;7.110;2023-05-12T09:11:03;101088.31;;;17.92;64.98
41654;BME280;68687;52.030;7.110;2023-05-12T09:13:36;101097.16;;;18.38;65.32
41654;BME280;68687;52.030;7.110;2023-05-12T09:16:04;101090.59;;;18.20;63.63
41654;BME280;68687;52.030;7.110;2023-05-12T09:18:50;101096.47;;;18.17;63.55
41654;BME280;68687;52.030;7.110;2023-05-12T09:21:19;101099.19;;;17.92;64.36
41654;BME280;68687;52.030;7.110;2023-05-12T09:24:04;101103.88;;;18.10;65.07
41654;BME280;68687;52.030;7.110;2023-05-12T09:29:20;101095.75;;;18.04;64.56
41654;BME280;68687;52.030;7.110;2023-05-12T09:31:52;101106.56;;;18.10;64.00
41654;BME280;68687;52.030;7.110;2023-05-12T09:34:19;101101.34;;;17.84;64.92
41654;BME280;68687;52.030;7.110;2023-05-12T09:36:57;101104.22;;;17.89;63.23
41654;BME280;68687;52.030;7.110;2023-05-12T09:39:23;101102.50;;;17.95;65.11
41654;BME280;68687;52.030;7.110;2023-05-12T09:41:55;101099.25;;;17.86;63.77
41654;BME280;68687;52.030;7.110;2023-05-12T09:44:22;101085.88;;;17.84;65.28
41654;BME280;68687;52.030;7.110;2023-05-12T09:46:48;101098.34;;;17.92;66.30
41654;BME280;68687;52.030;7.110;2023-05-12T09:49:24;101092.53;;;17.88;63.93
41654;BME280;68687;52.030;7.110;2023-05-12T09:52:00;101102.69;;;18.25;63.80
41654;BME280;68687;52.030;7.110;2023-05-12T09:54:29;101105.25;;;18.19;64.38
41654;BME280;68687;52.030;7.110;2023-05-12T09:57:02;101108.72;;;18.27;62.88
41654;BME280;68687;52.030;7.110;2023-05-12T09:59:35;101106.22;;;18.50;63.18
41654;BME280;68687;52.030;7.110;2023-05-12T10:02:04;101108.25;;;18.54;63.59
41654;BME280;68687;52.030;7.110;2023-05-12T10:04:52;101101.53;;;18.39;65.62
41654;BME280;68687;52.030;7.110;2023-05-12T10:07:21;101103.78;;;18.42;65.22
41654;BME280;68687;52.030;7.110;2023-05-12T10:09:48;101105.00;;;18.46;63.67
41654;BME280;68687;52.030;7.110;2023-05-12T10:12:16;101108.09;;;18.49;64.19
41654;BME280;68687;52.030;7.110;2023-05-12T10:14:45;101100.84;;;18.68;61.72
41654;BME280;68687;52.030;7.110;2023-05-12T10:17:11;101108.78;;;18.45;62.70
41654;BME280;68687;52.030;7.110;2023-05-12T10:19:37;101102.97;;;18.60;61.79
41654;BME280;68687;52.030;7.110;2023-05-12T10:22:08;101094.28;;;18.51;61.05
41654;BME280;68687;52.030;7.110;2023-05-12T10:24:34;101099.50;;;18.52;63.78
41654;BME280;68687;52.030;7.110;2023-05-12T10:27:03;101105.66;;;18.84;60.68
41654;BME280;68687;52.030;7.110;2023-05-12T10:29:33;101102.97;;;18.41;60.89
41654;BME280;68687;52.030;7.110;2023-05-12T10:31:59;101093.75;;;18.67;60.43
41654;BME280;68687;52.030;7.110;2023-05-12T10:34:43;101108.09;;;18.93;59.13
41654;BME280;68687;52.030;7.110;2023-05-12T10:37:09;101102.41;;;19.31;58.22
41654;BME280;68687;52.030;7.110;2023-05-12T10:39:36;101098.47;;;19.75;58.55
41654;BME280;68687;52.030;7.110;2023-05-12T10:42:06;101100.91;;;19.65;56.09
41654;BME280;68687;52.030;7.110;2023-05-12T10:44:35;101098.59;;;19.50;57.59
41654;BME280;68687;52.030;7.110;2023-05-12T10:47:14;101097.13;;;19.66;56.74
41654;BME280;68687;52.030;7.110;2023-05-12T10:49:40;101099.00;;;19.65;56.79
41654;BME280;68687;52.030;7.110;2023-05-12T10:52:06;101098.97;;;19.54;57.39
41654;BME280;68687;52.030;7.110;2023-05-12T10:54:47;101101.31;;;19.80;56.70
41654;BME280;68687;52.030;7.110;2023-05-12T10:57:14;101088.53;;;19.92;57.64
41654;BME280;68687;52.030;7.110;2023-05-12T10:59:51;101088.22;;;20.12;56.25
41654;BME280;68687;52.030;7.110;2023-05-12T11:02:18;101090.13;;;20.00;56.83
41654;BME280;68687;52.030;7.110;2023-05-12T11:05:00;101086.63;;;19.81;58.18
41654;BME280;68687;52.030;7.110;2023-05-12T11:07:30;101083.53;;;20.43;58.27
41654;BME280;68687;52.030;7.110;2023-05-12T11:09:59;101095.50;;;20.42;56.81
41654;BME280;68687;52.030;7.110;2023-05-12T11:12:26;101081.00;;;20.29;57.03
41654;BME280;68687;52.030;7.110;2023-05-12T11:14:52;101085.03;;;20.27;56.09
41654;BME280;68687;52.030;7.110;2023-05-12T11:17:18;101069.13;;;20.24;55.73
41654;BME280;68687;52.030;7.110;2023-05-12T11:19:45;101080.31;;;20.34;55.79
41654;BME280;68687;52.030;7.110;2023-05-12T11:22:12;101078.78;;;20.61;54.43
41654;BME280;68687;52.030;7.110;2023-05-12T11:24:40;101071.66;;;20.49;53.20
41654;BME280;68687;52.030;7.110;2023-05-12T11:27:11;101073.28;;;20.73;54.37
41654;BME280;68687;52.030;7.110;2023-05-12T11:29:37;101079.94;;;20.54;53.95
41654;BME280;68687;52.030;7.110;2023-05-12T11:32:14;101075.81;;;20.51;54.00
41654;BME280;68687;52.030;7.110;2023-05-12T11:34:42;101075.72;;;20.58;53.79
41654;BME280;68687;52.030;7.110;2023-05-12T11:37:07;101084.44;;;20.36;53.90
41654;BME280;68687;52.030;7.110;2023-05-12T11:39:34;101073.66;;;20.53;53.55
41654;BME280;68687;52.030;7.110;2023-05-12T11:42:05;101081.03;;;20.64;54.30
41654;BME280;68687;52.030;7.110;2023-05-12T11:44:32;101073.66;;;20.53;51.93
41654;BME280;68687;52.030;7.110;2023-05-12T11:46:58;101077.53;;;20.81;52.83
41654;BME280;68687;52.030;7.110;2023-05-12T11:49:25;101070.53;;;20.96;50.86
41654;BME280;68687;52.030;7.110;2023-05-12T11:51:54;101080.31;;;20.46;52.28
41654;BME280;68687;52.030;7.110;2023-05-12T11:54:23;101069.88;;;20.54;53.94
41654;BME280;68687;52.030;7.110;2023-05-12T11:56:51;101078.78;;;20.61;54.50
41654;BME280;68687;52.030;7.110;2023-05-12T11:59:33;101070.72;;;20.55;52.65
41654;BME280;68687;52.030;7.110;2023-05-12T12:02:01;101071.78;;;20.65;52.00
41654;BME280;68687;52.030;7.110;2023-05-12T12:04:38;101075.47;;;20.59;52.33
41654;BME280;68687;52.030;7.110;2023-05-12T12:07:07;101074.13;;;20.74;51.47
41654;BME280;68687;52.030;7.110;2023-05-12T12:09:37;101077.47;;;20.52;51.91
41654;BME280;68687;52.030;7.110;2023-05-12T12:12:09;101068.09;;;20.48;52.57
41654;BME280;68687;52.030;7.110;2023-05-12T12:14:36;101080.31;;;20.46;52.43
41654;BME280;68687;52.030;7.110;2023-05-12T12:17:10;101071.66;;;20.49;52.07
41654;BME280;68687;52.030;7.110;2023-05-12T12:19:36;101076.03;;;20.85;53.50
41654;BME280;68687;52.030;7.110;2023-05-12T12:22:01;101072.22;;;20.74;52.79
41654;BME280;68687;52.030;7.110;2023-05-12T12:24:26;101086.06;;;20.96;52.78
41654;BME280;68687;52.030;7.110;2023-05-12T12:26:58;101069.28;;;20.64;51.86
41654;BME280;68687;52.030;7.110;2023-05-12T12:29:23;101078.06;;;20.66;51.94
41654;BME280;68687;52.030;7.110;2023-05-12T12:31:50;101074.59;;;20.71;52.23
41654;BME280;68687;52.030;7.110;2023-05-12T12:34:15;101082.47;;;20.55;52.42
41654;BME280;68687;52.030;7.110;2023-05-12T12:36:40;101074.38;;;20.72;50.08
41654;BME280;68687;52.030;7.110;2023-05-12T12:39:06;101062.38;;;20.85;51.28
41654;BME280;68687;52.030;7.110;2023-05-12T12:41:32;101074.13;;;20.74;50.94
41654;BME280;68687;52.030;7.110;2023-05-12T12:43:57;101055.28;;;20.72;51.15
41654;BME280;68687;52.030;7.110;2023-05-12T12:46:23;101058.69;;;20.91;51.55
41654;BME280;68687;52.030;7.110;2023-05-12T12:48:48;101069.00;;;20.89;49.72
41654;BME280;68687;52.030;7.110;2023-05-12T12:51:14;101077.16;;;21.01;49.85